Crawford, NE (69339)

7:53 AM MDT on October 02, 2014 (GMT -0600)
Chadron Municipal | Change Station
CLOSE
Current Station
Airport
Location: Chadron,
Elevation: 3297 ft
Nearby Weather Stations
Active Advisory: Special Statement

Elev 3297 ft 42.84 °N, 103.10 °W | Updated 1 hour ago

Clear
Clear
39 °F
Feels Like 33 °F
N
9
Wind Variable Wind from WSW

Today
High -- | Low -- °F
--% Chance of Precip.
Yesterday
High -- | Low -- °F
Precip. -- in
6:52 AM 6:33 PM
First Quarter, 59% visible
Pressure 30.09 in
Visibility 10.0 miles
Clouds Clear
Windchill 33 °F
Dew Point 37 °F
Humidity 93%
Rainfall 0.00 in
Snow Depth Not available.
UV 0 out of 12
Pollen 3.20 out of 12
Air Quality Not available.
Flu Activity Not available.
METAR KCDR 021253Z AUTO 24008KT 10SM CLR 04/03 A3005 RMK AO2 SLP190 T00390028

More Conditions Fewer Conditions

Pressure 30.09 in
Visibility 10.0 miles
Clouds Clear
Windchill 33 °F
Dew Point 37 °F
Humidity 93%
Rainfall 0.00 in
Snow Depth Not available.
UV 0 out of 12
Pollen 3.20 out of 12
Air Quality Not available.
Flu Activity Not available.
METAR KCDR 021253Z AUTO 24008KT 10SM CLR 04/03 A3005 RMK AO2 SLP190 T00390028

More Conditions Fewer Conditions

10-Day Weather Forecast

Almanac

Astronomy

Oct. 02, 2014 Rise Set
Actual Time 6:52 AM MDT 6:33 PM MDT
Civil Twilight 6:23 AM MDT 7:01 PM MDT
Nautical Twilight 5:51 AM MDT 7:33 PM MDT
Astronomical Twilight 5:18 AM MDT 8:06 PM MDT
Moon 2:48 PM MDT 12:03 AM MDT
Length of Visible Light 12h 37m
Length of Day
11h 41m
Tomorrow will be 2m 51s shorter.
First Quarter, 59% of the Moon is Illuminated
Today
First Quarter
Oct 8
Full
Oct 15
Last Quarter
Oct 23
New
Oct 30
First Quarter

Today's Extremes

State Highs State Lows

Community

WunderPhotos

Upload Photos

1,758,245 photos uploaded!

WunderBlogs® & News

Nearby

Snow Depth

Station Depth Elevation
No new snow has been reported.

Earthquake Activity

City Distance Mag. Time & Date
No recent earthquake activity has been reported nearby.
Minimum magnitude displayed is 2.5.

Coastal Water Temperatures

Place Temperature
No Stations Reporting

Nearby Weather Stations